sensor_id;sensor_type;location;lat;lon;timestamp;P1;durP1;ratioP1;P2;durP2;ratioP2
75512;SDS011;64090;49.770;18.760;2023-02-15T00:02:53;64.30;;;32.60;;
75512;SDS011;64090;49.770;18.760;2023-02-15T00:05:57;66.60;;;32.20;;
75512;SDS011;64090;49.770;18.760;2023-02-15T00:09:03;59.00;;;31.10;;
75512;SDS011;64090;49.770;18.760;2023-02-15T00:12:09;67.00;;;33.10;;
75512;SDS011;64090;49.770;18.760;2023-02-15T00:15:13;60.00;;;32.60;;
75512;SDS011;64090;49.770;18.760;2023-02-15T00:18:16;53.30;;;23.00;;
75512;SDS011;64090;49.770;18.760;2023-02-15T00:21:21;68.60;;;33.80;;
75512;SDS011;64090;49.770;18.760;2023-02-15T00:24:28;71.70;;;34.50;;
75512;SDS011;64090;49.770;18.760;2023-02-15T00:27:32;63.00;;;33.80;;
75512;SDS011;64090;49.770;18.760;2023-02-15T00:30:41;66.80;;;32.70;;
75512;SDS011;64090;49.770;18.760;2023-02-15T00:33:44;67.10;;;34.80;;
75512;SDS011;64090;49.770;18.760;2023-02-15T00:36:47;65.60;;;31.50;;
75512;SDS011;64090;49.770;18.760;2023-02-15T00:39:51;46.10;;;25.30;;
75512;SDS011;64090;49.770;18.760;2023-02-15T00:42:54;56.20;;;28.60;;
75512;SDS011;64090;49.770;18.760;2023-02-15T00:45:58;47.90;;;25.40;;
75512;SDS011;64090;49.770;18.760;2023-02-15T00:49:02;45.70;;;24.80;;
75512;SDS011;64090;49.770;18.760;2023-02-15T00:52:07;41.40;;;21.00;;
75512;SDS011;64090;49.770;18.760;2023-02-15T00:55:10;42.20;;;21.60;;
75512;SDS011;64090;49.770;18.760;2023-02-15T00:58:16;37.70;;;20.50;;
75512;SDS011;64090;49.770;18.760;2023-02-15T01:01:20;38.90;;;21.60;;
75512;SDS011;64090;49.770;18.760;2023-02-15T01:04:24;17.00;;;10.10;;
75512;SDS011;64090;49.770;18.760;2023-02-15T01:07:28;30.50;;;15.50;;
75512;SDS011;64090;49.770;18.760;2023-02-15T01:10:33;39.90;;;19.70;;
75512;SDS011;64090;49.770;18.760;2023-02-15T01:13:37;38.50;;;19.60;;
75512;SDS011;64090;49.770;18.760;2023-02-15T01:16:42;44.40;;;21.00;;
75512;SDS011;64090;49.770;18.760;2023-02-15T01:19:48;33.50;;;22.40;;
75512;SDS011;64090;49.770;18.760;2023-02-15T01:22:52;39.00;;;18.90;;
75512;SDS011;64090;49.770;18.760;2023-02-15T01:25:56;40.60;;;19.90;;
75512;SDS011;64090;49.770;18.760;2023-02-15T01:29:07;28.50;;;14.30;;
75512;SDS011;64090;49.770;18.760;2023-02-15T01:32:11;36.80;;;20.20;;
75512;SDS011;64090;49.770;18.760;2023-02-15T01:35:15;27.80;;;15.10;;
75512;SDS011;64090;49.770;18.760;2023-02-15T01:38:20;31.80;;;17.00;;
75512;SDS011;64090;49.770;18.760;2023-02-15T01:41:24;27.00;;;15.00;;
75512;SDS011;64090;49.770;18.760;2023-02-15T01:44:50;32.30;;;15.70;;
75512;SDS011;64090;49.770;18.760;2023-02-15T01:48:03;27.40;;;15.00;;
75512;SDS011;64090;49.770;18.760;2023-02-15T01:51:08;37.10;;;19.20;;
75512;SDS011;64090;49.770;18.760;2023-02-15T01:54:15;32.30;;;17.80;;
75512;SDS011;64090;49.770;18.760;2023-02-15T01:57:38;28.60;;;15.80;;
75512;SDS011;64090;49.770;18.760;2023-02-15T02:00:45;35.60;;;18.10;;
75512;SDS011;64090;49.770;18.760;2023-02-15T02:03:53;35.70;;;17.40;;
75512;SDS011;64090;49.770;18.760;2023-02-15T02:07:20;31.20;;;16.40;;
75512;SDS011;64090;49.770;18.760;2023-02-15T02:10:27;32.30;;;16.40;;
75512;SDS011;64090;49.770;18.760;2023-02-15T02:13:32;30.30;;;18.50;;
75512;SDS011;64090;49.770;18.760;2023-02-15T02:23:24;31.00;;;16.80;;
75512;SDS011;64090;49.770;18.760;2023-02-15T02:29:57;31.30;;;14.70;;
75512;SDS011;64090;49.770;18.760;2023-02-15T02:36:55;31.40;;;16.90;;
75512;SDS011;64090;49.770;18.760;2023-02-15T02:40:18;28.80;;;15.80;;
75512;SDS011;64090;49.770;18.760;2023-02-15T02:47:08;31.00;;;16.40;;
75512;SDS011;64090;49.770;18.760;2023-02-15T02:50:21;27.90;;;16.10;;
75512;SDS011;64090;49.770;18.760;2023-02-15T02:53:29;30.60;;;15.00;;
75512;SDS011;64090;49.770;18.760;2023-02-15T02:56:41;31.30;;;15.70;;
75512;SDS011;64090;49.770;18.760;2023-02-15T02:59:51;31.10;;;15.00;;
75512;SDS011;64090;49.770;18.760;2023-02-15T03:03:00;28.50;;;15.30;;
75512;SDS011;64090;49.770;18.760;2023-02-15T03:06:17;31.50;;;15.10;;
75512;SDS011;64090;49.770;18.760;2023-02-15T03:09:28;25.40;;;17.30;;
75512;SDS011;64090;49.770;18.760;2023-02-15T03:12:45;28.80;;;15.10;;
75512;SDS011;64090;49.770;18.760;2023-02-15T03:15:50;26.70;;;16.40;;
75512;SDS011;64090;49.770;18.760;2023-02-15T03:19:33;26.80;;;11.80;;
75512;SDS011;64090;49.770;18.760;2023-02-15T03:22:44;12.70;;;8.50;;
75512;SDS011;64090;49.770;18.760;2023-02-15T03:25:57;4.50;;;3.10;;
75512;SDS011;64090;49.770;18.760;2023-02-15T03:29:08;13.80;;;7.20;;
75512;SDS011;64090;49.770;18.760;2023-02-15T03:32:14;19.00;;;9.10;;
75512;SDS011;64090;49.770;18.760;2023-02-15T03:35:21;23.60;;;12.10;;
75512;SDS011;64090;49.770;18.760;2023-02-15T03:38:40;24.90;;;13.10;;
75512;SDS011;64090;49.770;18.760;2023-02-15T03:45:17;22.70;;;12.40;;
75512;SDS011;64090;49.770;18.760;2023-02-15T03:48:39;25.60;;;14.00;;
75512;SDS011;64090;49.770;18.760;2023-02-15T03:51:52;25.40;;;13.00;;
75512;SDS011;64090;49.770;18.760;2023-02-15T03:55:00;25.90;;;13.20;;
75512;SDS011;64090;49.770;18.760;2023-02-15T03:58:07;30.80;;;14.60;;
75512;SDS011;64090;49.770;18.760;2023-02-15T04:01:33;26.70;;;16.60;;
75512;SDS011;64090;49.770;18.760;2023-02-15T04:04:46;30.40;;;16.70;;
75512;SDS011;64090;49.770;18.760;2023-02-15T04:07:51;34.70;;;16.20;;
75512;SDS011;64090;49.770;18.760;2023-02-15T04:10:56;19.00;;;10.50;;
75512;SDS011;64090;49.770;18.760;2023-02-15T04:14:06;22.20;;;10.00;;
75512;SDS011;64090;49.770;18.760;2023-02-15T04:17:31;12.50;;;6.80;;
75512;SDS011;64090;49.770;18.760;2023-02-15T04:21:00;11.30;;;6.70;;
75512;SDS011;64090;49.770;18.760;2023-02-15T04:24:40;13.60;;;6.90;;
75512;SDS011;64090;49.770;18.760;2023-02-15T04:28:07;20.70;;;12.70;;
75512;SDS011;64090;49.770;18.760;2023-02-15T04:31:19;30.40;;;15.80;;
75512;SDS011;64090;49.770;18.760;2023-02-15T04:34:22;30.90;;;15.70;;
75512;SDS011;64090;49.770;18.760;2023-02-15T04:37:26;32.10;;;16.80;;
75512;SDS011;64090;49.770;18.760;2023-02-15T04:40:38;28.30;;;17.00;;
75512;SDS011;64090;49.770;18.760;2023-02-15T04:43:42;31.20;;;16.70;;
75512;SDS011;64090;49.770;18.760;2023-02-15T04:46:46;33.50;;;17.30;;
75512;SDS011;64090;49.770;18.760;2023-02-15T04:49:54;37.20;;;23.00;;
75512;SDS011;64090;49.770;18.760;2023-02-15T04:53:21;34.20;;;18.70;;
75512;SDS011;64090;49.770;18.760;2023-02-15T04:56:26;35.40;;;16.40;;
75512;SDS011;64090;49.770;18.760;2023-02-15T04:59:31;21.00;;;11.30;;
75512;SDS011;64090;49.770;18.760;2023-02-15T05:02:57;30.80;;;16.40;;
75512;SDS011;64090;49.770;18.760;2023-02-15T05:06:45;30.40;;;17.20;;
75512;SDS011;64090;49.770;18.760;2023-02-15T05:10:35;25.60;;;11.90;;
75512;SDS011;64090;49.770;18.760;2023-02-15T05:13:39;27.70;;;16.00;;
75512;SDS011;64090;49.770;18.760;2023-02-15T05:17:12;41.30;;;19.00;;
75512;SDS011;64090;49.770;18.760;2023-02-15T05:20:46;32.80;;;16.50;;
75512;SDS011;64090;49.770;18.760;2023-02-15T05:24:23;39.00;;;20.10;;
75512;SDS011;64090;49.770;18.760;2023-02-15T05:27:45;40.40;;;19.90;;
75512;SDS011;64090;49.770;18.760;2023-02-15T05:31:12;30.40;;;16.40;;
75512;SDS011;64090;49.770;18.760;2023-02-15T05:34:18;32.20;;;16.40;;
75512;SDS011;64090;49.770;18.760;2023-02-15T05:37:21;31.00;;;16.90;;
75512;SDS011;64090;49.770;18.760;2023-02-15T05:40:24;30.70;;;15.90;;
75512;SDS011;64090;49.770;18.760;2023-02-15T05:43:27;43.10;;;20.50;;
75512;SDS011;64090;49.770;18.760;2023-02-15T05:46:31;36.50;;;18.70;;
75512;SDS011;64090;49.770;18.760;2023-02-15T05:49:46;40.80;;;19.90;;
75512;SDS011;64090;49.770;18.760;2023-02-15T05:53:02;42.30;;;22.70;;
75512;SDS011;64090;49.770;18.760;2023-02-15T05:56:14;52.50;;;23.80;;
75512;SDS011;64090;49.770;18.760;2023-02-15T05:59:22;51.60;;;24.60;;
75512;SDS011;64090;49.770;18.760;2023-02-15T06:02:53;47.20;;;24.70;;
75512;SDS011;64090;49.770;18.760;2023-02-15T06:06:41;42.30;;;23.40;;
75512;SDS011;64090;49.770;18.760;2023-02-15T06:09:44;38.50;;;20.80;;
75512;SDS011;64090;49.770;18.760;2023-02-15T06:12:49;37.50;;;19.60;;
75512;SDS011;64090;49.770;18.760;2023-02-15T06:15:54;34.60;;;18.20;;
75512;SDS011;64090;49.770;18.760;2023-02-15T06:18:59;37.50;;;19.60;;
75512;SDS011;64090;49.770;18.760;2023-02-15T06:22:04;43.90;;;22.70;;
75512;SDS011;64090;49.770;18.760;2023-02-15T06:25:13;72.40;;;35.60;;
75512;SDS011;64090;49.770;18.760;2023-02-15T06:28:18;70.00;;;35.00;;
75512;SDS011;64090;49.770;18.760;2023-02-15T06:31:24;77.80;;;40.30;;
75512;SDS011;64090;49.770;18.760;2023-02-15T06:35:01;52.60;;;26.60;;
75512;SDS011;64090;49.770;18.760;2023-02-15T06:38:13;49.60;;;28.80;;
75512;SDS011;64090;49.770;18.760;2023-02-15T06:41:36;39.40;;;19.70;;
75512;SDS011;64090;49.770;18.760;2023-02-15T06:44:40;37.40;;;21.70;;
75512;SDS011;64090;49.770;18.760;2023-02-15T06:48:06;37.50;;;20.90;;
75512;SDS011;64090;49.770;18.760;2023-02-15T06:51:32;25.20;;;12.10;;
75512;SDS011;64090;49.770;18.760;2023-02-15T06:54:36;17.10;;;9.00;;
75512;SDS011;64090;49.770;18.760;2023-02-15T06:57:42;34.20;;;16.50;;
75512;SDS011;64090;49.770;18.760;2023-02-15T07:00:52;22.80;;;14.20;;
75512;SDS011;64090;49.770;18.760;2023-02-15T07:04:05;20.60;;;11.50;;
75512;SDS011;64090;49.770;18.760;2023-02-15T07:07:11;17.70;;;9.70;;
75512;SDS011;64090;49.770;18.760;2023-02-15T07:10:17;31.00;;;16.80;;
75512;SDS011;64090;49.770;18.760;2023-02-15T07:13:20;40.00;;;21.80;;
75512;SDS011;64090;49.770;18.760;2023-02-15T07:16:27;38.90;;;23.20;;
75512;SDS011;64090;49.770;18.760;2023-02-15T07:19:30;32.70;;;18.00;;
75512;SDS011;64090;49.770;18.760;2023-02-15T07:22:56;39.60;;;20.60;;
75512;SDS011;64090;49.770;18.760;2023-02-15T07:26:03;38.10;;;20.30;;
75512;SDS011;64090;49.770;18.760;2023-02-15T07:29:09;37.00;;;20.20;;
75512;SDS011;64090;49.770;18.760;2023-02-15T07:32:22;42.90;;;22.80;;
75512;SDS011;64090;49.770;18.760;2023-02-15T07:35:32;37.10;;;19.40;;
75512;SDS011;64090;49.770;18.760;2023-02-15T07:39:13;79.20;;;38.70;;
75512;SDS011;64090;49.770;18.760;2023-02-15T07:42:18;40.20;;;19.20;;
75512;SDS011;64090;49.770;18.760;2023-02-15T07:45:24;24.50;;;9.60;;
75512;SDS011;64090;49.770;18.760;2023-02-15T07:48:35;41.40;;;23.10;;
75512;SDS011;64090;49.770;18.760;2023-02-15T07:52:01;41.00;;;24.10;;
75512;SDS011;64090;49.770;18.760;2023-02-15T07:58:15;38.90;;;20.10;;
75512;SDS011;64090;49.770;18.760;2023-02-15T08:01:31;28.00;;;14.30;;
75512;SDS011;64090;49.770;18.760;2023-02-15T08:04:36;36.70;;;20.60;;
75512;SDS011;64090;49.770;18.760;2023-02-15T08:07:39;32.20;;;18.90;;
75512;SDS011;64090;49.770;18.760;2023-02-15T08:14:27;32.00;;;17.60;;
75512;SDS011;64090;49.770;18.760;2023-02-15T08:17:35;34.70;;;18.60;;
75512;SDS011;64090;49.770;18.760;2023-02-15T08:20:59;37.50;;;18.10;;
75512;SDS011;64090;49.770;18.760;2023-02-15T08:24:10;34.90;;;18.20;;
75512;SDS011;64090;49.770;18.760;2023-02-15T08:27:14;33.90;;;18.10;;
75512;SDS011;64090;49.770;18.760;2023-02-15T08:30:35;30.60;;;15.90;;
75512;SDS011;64090;49.770;18.760;2023-02-15T08:33:44;35.90;;;20.50;;
75512;SDS011;64090;49.770;18.760;2023-02-15T08:36:51;35.90;;;21.90;;
75512;SDS011;64090;49.770;18.760;2023-02-15T08:39:54;31.70;;;19.60;;
75512;SDS011;64090;49.770;18.760;2023-02-15T08:42:59;29.60;;;15.10;;
75512;SDS011;64090;49.770;18.760;2023-02-15T08:46:08;10.60;;;6.50;;
75512;SDS011;64090;49.770;18.760;2023-02-15T08:49:18;41.60;;;22.70;;
75512;SDS011;64090;49.770;18.760;2023-02-15T08:52:22;27.00;;;12.90;;
75512;SDS011;64090;49.770;18.760;2023-02-15T08:55:27;22.30;;;11.00;;
75512;SDS011;64090;49.770;18.760;2023-02-15T08:58:31;22.70;;;11.80;;
75512;SDS011;64090;49.770;18.760;2023-02-15T09:01:36;33.70;;;19.50;;
75512;SDS011;64090;49.770;18.760;2023-02-15T09:04:40;27.40;;;15.90;;
75512;SDS011;64090;49.770;18.760;2023-02-15T09:07:50;34.20;;;18.60;;
75512;SDS011;64090;49.770;18.760;2023-02-15T09:11:12;34.50;;;18.50;;
75512;SDS011;64090;49.770;18.760;2023-02-15T09:15:11;38.20;;;20.60;;
75512;SDS011;64090;49.770;18.760;2023-02-15T09:19:14;38.40;;;23.10;;
75512;SDS011;64090;49.770;18.760;2023-02-15T09:22:59;37.40;;;21.50;;
75512;SDS011;64090;49.770;18.760;2023-02-15T09:26:32;35.00;;;19.40;;
75512;SDS011;64090;49.770;18.760;2023-02-15T09:30:15;31.80;;;17.60;;
75512;SDS011;64090;49.770;18.760;2023-02-15T09:34:12;33.40;;;17.70;;
75512;SDS011;64090;49.770;18.760;2023-02-15T09:37:39;28.80;;;18.20;;
75512;SDS011;64090;49.770;18.760;2023-02-15T09:45:45;29.00;;;16.20;;
75512;SDS011;64090;49.770;18.760;2023-02-15T09:54:30;29.30;;;16.90;;
75512;SDS011;64090;49.770;18.760;2023-02-15T09:58:46;30.50;;;15.70;;
75512;SDS011;64090;49.770;18.760;2023-02-15T10:15:06;31.50;;;17.30;;
75512;SDS011;64090;49.770;18.760;2023-02-15T10:19:04;28.40;;;14.60;;
75512;SDS011;64090;49.770;18.760;2023-02-15T10:23:05;25.00;;;13.90;;
75512;SDS011;64090;49.770;18.760;2023-02-15T10:27:13;34.70;;;18.10;;
75512;SDS011;64090;49.770;18.760;2023-02-15T10:30:38;27.10;;;14.80;;
75512;SDS011;64090;49.770;18.760;2023-02-15T10:34:27;31.00;;;16.20;;
75512;SDS011;64090;49.770;18.760;2023-02-15T10:38:51;33.90;;;19.50;;
75512;SDS011;64090;49.770;18.760;2023-02-15T10:46:44;25.70;;;15.90;;
75512;SDS011;64090;49.770;18.760;2023-02-15T10:49:59;26.80;;;16.10;;
75512;SDS011;64090;49.770;18.760;2023-02-15T10:55:02;27.80;;;16.30;;
75512;SDS011;64090;49.770;18.760;2023-02-15T11:07:21;31.80;;;16.50;;
75512;SDS011;64090;49.770;18.760;2023-02-15T11:16:27;30.80;;;17.20;;
75512;SDS011;64090;49.770;18.760;2023-02-15T11:19:33;29.50;;;19.50;;
75512;SDS011;64090;49.770;18.760;2023-02-15T11:36:46;23.60;;;13.90;;
75512;SDS011;64090;49.770;18.760;2023-02-15T11:51:24;21.80;;;13.80;;
75512;SDS011;64090;49.770;18.760;2023-02-15T11:59:55;23.20;;;13.90;;
75512;SDS011;64090;49.770;18.760;2023-02-15T12:08:12;19.60;;;11.80;;
75512;SDS011;64090;49.770;18.760;2023-02-15T12:20:42;22.50;;;13.60;;
75512;SDS011;64090;49.770;18.760;2023-02-15T12:48:39;19.00;;;9.60;;
75512;SDS011;64090;49.770;18.760;2023-02-15T12:52:25;26.70;;;16.50;;
75512;SDS011;64090;49.770;18.760;2023-02-15T13:36:31;25.00;;;12.50;;
75512;SDS011;64090;49.770;18.760;2023-02-15T13:47:21;28.60;;;14.70;;
75512;SDS011;64090;49.770;18.760;2023-02-15T14:25:34;23.90;;;13.00;;
75512;SDS011;64090;49.770;18.760;2023-02-15T14:32:42;21.40;;;13.70;;
75512;SDS011;64090;49.770;18.760;2023-02-15T14:36:08;20.20;;;12.30;;
75512;SDS011;64090;49.770;18.760;2023-02-15T14:43:47;23.20;;;14.40;;
75512;SDS011;64090;49.770;18.760;2023-02-15T14:47:07;28.70;;;15.10;;
75512;SDS011;64090;49.770;18.760;2023-02-15T14:53:54;21.10;;;11.40;;
75512;SDS011;64090;49.770;18.760;2023-02-15T14:57:24;29.80;;;16.00;;
75512;SDS011;64090;49.770;18.760;2023-02-15T15:00:30;29.80;;;16.80;;
75512;SDS011;64090;49.770;18.760;2023-02-15T15:03:43;22.70;;;12.90;;
75512;SDS011;64090;49.770;18.760;2023-02-15T15:07:00;54.50;;;39.20;;
75512;SDS011;64090;49.770;18.760;2023-02-15T15:26:26;33.60;;;16.90;;
75512;SDS011;64090;49.770;18.760;2023-02-15T15:29:40;47.30;;;19.40;;
75512;SDS011;64090;49.770;18.760;2023-02-15T15:32:50;59.10;;;30.20;;
75512;SDS011;64090;49.770;18.760;2023-02-15T15:39:46;41.30;;;20.20;;
75512;SDS011;64090;49.770;18.760;2023-02-15T15:43:29;71.40;;;33.10;;
75512;SDS011;64090;49.770;18.760;2023-02-15T15:50:14;57.40;;;29.80;;
75512;SDS011;64090;49.770;18.760;2023-02-15T15:53:20;46.10;;;22.60;;
75512;SDS011;64090;49.770;18.760;2023-02-15T15:56:27;41.20;;;22.90;;
75512;SDS011;64090;49.770;18.760;2023-02-15T15:59:35;29.20;;;15.70;;
75512;SDS011;64090;49.770;18.760;2023-02-15T16:02:49;27.50;;;14.20;;
75512;SDS011;64090;49.770;18.760;2023-02-15T16:05:55;22.60;;;11.60;;
75512;SDS011;64090;49.770;18.760;2023-02-15T16:09:10;31.30;;;15.20;;
75512;SDS011;64090;49.770;18.760;2023-02-15T16:12:24;35.70;;;16.20;;
75512;SDS011;64090;49.770;18.760;2023-02-15T16:15:55;29.60;;;14.30;;
75512;SDS011;64090;49.770;18.760;2023-02-15T16:18:59;39.60;;;19.50;;
75512;SDS011;64090;49.770;18.760;2023-02-15T16:22:02;30.80;;;13.90;;
75512;SDS011;64090;49.770;18.760;2023-02-15T16:25:30;41.00;;;23.10;;
75512;SDS011;64090;49.770;18.760;2023-02-15T16:28:38;38.80;;;19.40;;
75512;SDS011;64090;49.770;18.760;2023-02-15T16:31:41;36.40;;;21.20;;
75512;SDS011;64090;49.770;18.760;2023-02-15T16:34:55;43.50;;;22.00;;
75512;SDS011;64090;49.770;18.760;2023-02-15T16:38:01;43.60;;;25.30;;
75512;SDS011;64090;49.770;18.760;2023-02-15T16:41:04;29.20;;;16.10;;
75512;SDS011;64090;49.770;18.760;2023-02-15T16:44:11;40.10;;;21.40;;
75512;SDS011;64090;49.770;18.760;2023-02-15T16:47:25;54.40;;;28.00;;
75512;SDS011;64090;49.770;18.760;2023-02-15T16:50:34;26.10;;;13.80;;
75512;SDS011;64090;49.770;18.760;2023-02-15T16:53:40;39.90;;;20.40;;
75512;SDS011;64090;49.770;18.760;2023-02-15T16:56:43;38.00;;;19.80;;
75512;SDS011;64090;49.770;18.760;2023-02-15T16:59:49;63.50;;;30.80;;
75512;SDS011;64090;49.770;18.760;2023-02-15T17:02:54;60.60;;;31.60;;
75512;SDS011;64090;49.770;18.760;2023-02-15T17:06:02;44.20;;;23.40;;
75512;SDS011;64090;49.770;18.760;2023-02-15T17:09:12;64.10;;;32.40;;
75512;SDS011;64090;49.770;18.760;2023-02-15T17:19:07;76.50;;;38.40;;
75512;SDS011;64090;49.770;18.760;2023-02-15T17:22:17;64.80;;;32.40;;
75512;SDS011;64090;49.770;18.760;2023-02-15T17:25:36;45.80;;;22.00;;
75512;SDS011;64090;49.770;18.760;2023-02-15T17:31:50;91.40;;;39.10;;
75512;SDS011;64090;49.770;18.760;2023-02-15T17:38:21;84.10;;;40.10;;
75512;SDS011;64090;49.770;18.760;2023-02-15T17:44:28;66.30;;;32.20;;
75512;SDS011;64090;49.770;18.760;2023-02-15T17:47:31;79.30;;;39.40;;
75512;SDS011;64090;49.770;18.760;2023-02-15T17:50:34;72.60;;;35.80;;
75512;SDS011;64090;49.770;18.760;2023-02-15T17:53:38;52.90;;;20.60;;
75512;SDS011;64090;49.770;18.760;2023-02-15T17:56:41;62.00;;;30.00;;
75512;SDS011;64090;49.770;18.760;2023-02-15T17:59:44;27.90;;;12.40;;
75512;SDS011;64090;49.770;18.760;2023-02-15T18:03:08;58.70;;;29.20;;
75512;SDS011;64090;49.770;18.760;2023-02-15T18:06:32;47.90;;;21.30;;
75512;SDS011;64090;49.770;18.760;2023-02-15T18:09:55;67.00;;;29.30;;
75512;SDS011;64090;49.770;18.760;2023-02-15T18:13:17;98.60;;;36.80;;
75512;SDS011;64090;49.770;18.760;2023-02-15T18:16:22;55.60;;;21.50;;
75512;SDS011;64090;49.770;18.760;2023-02-15T18:19:30;102.80;;;41.70;;
75512;SDS011;64090;49.770;18.760;2023-02-15T18:22:34;55.80;;;23.80;;
75512;SDS011;64090;49.770;18.760;2023-02-15T18:25:38;53.00;;;25.30;;
75512;SDS011;64090;49.770;18.760;2023-02-15T18:28:41;55.60;;;21.90;;
75512;SDS011;64090;49.770;18.760;2023-02-15T18:31:45;79.30;;;38.90;;
75512;SDS011;64090;49.770;18.760;2023-02-15T18:34:53;87.60;;;37.10;;
75512;SDS011;64090;49.770;18.760;2023-02-15T18:37:59;64.50;;;28.40;;
75512;SDS011;64090;49.770;18.760;2023-02-15T18:41:03;82.80;;;37.70;;
75512;SDS011;64090;49.770;18.760;2023-02-15T18:44:10;67.70;;;30.40;;
75512;SDS011;64090;49.770;18.760;2023-02-15T18:47:13;78.20;;;38.20;;
75512;SDS011;64090;49.770;18.760;2023-02-15T18:50:18;70.90;;;32.00;;
75512;SDS011;64090;49.770;18.760;2023-02-15T18:53:22;65.30;;;30.50;;
75512;SDS011;64090;49.770;18.760;2023-02-15T18:56:25;75.40;;;35.40;;
75512;SDS011;64090;49.770;18.760;2023-02-15T18:59:28;68.60;;;32.80;;
75512;SDS011;64090;49.770;18.760;2023-02-15T19:02:33;53.50;;;31.00;;
75512;SDS011;64090;49.770;18.760;2023-02-15T19:05:36;55.20;;;28.30;;
75512;SDS011;64090;49.770;18.760;2023-02-15T19:08:39;65.10;;;31.20;;
75512;SDS011;64090;49.770;18.760;2023-02-15T19:11:43;59.50;;;33.90;;
75512;SDS011;64090;49.770;18.760;2023-02-15T19:14:54;68.20;;;33.80;;
75512;SDS011;64090;49.770;18.760;2023-02-15T19:17:58;65.80;;;31.80;;
75512;SDS011;64090;49.770;18.760;2023-02-15T19:21:01;62.80;;;29.90;;
75512;SDS011;64090;49.770;18.760;2023-02-15T19:24:06;88.20;;;46.80;;
75512;SDS011;64090;49.770;18.760;2023-02-15T19:27:20;110.60;;;45.10;;
75512;SDS011;64090;49.770;18.760;2023-02-15T19:30:28;54.70;;;26.60;;
75512;SDS011;64090;49.770;18.760;2023-02-15T19:33:33;42.00;;;20.40;;
75512;SDS011;64090;49.770;18.760;2023-02-15T19:36:43;46.00;;;22.70;;
75512;SDS011;64090;49.770;18.760;2023-02-15T19:39:48;55.70;;;26.40;;
75512;SDS011;64090;49.770;18.760;2023-02-15T19:42:52;26.30;;;16.20;;
75512;SDS011;64090;49.770;18.760;2023-02-15T19:45:55;78.30;;;35.10;;
75512;SDS011;64090;49.770;18.760;2023-02-15T19:48:58;38.00;;;19.80;;
75512;SDS011;64090;49.770;18.760;2023-02-15T19:52:02;40.70;;;20.10;;
75512;SDS011;64090;49.770;18.760;2023-02-15T19:55:05;64.60;;;27.90;;
75512;SDS011;64090;49.770;18.760;2023-02-15T19:58:14;108.00;;;49.20;;
75512;SDS011;64090;49.770;18.760;2023-02-15T20:01:36;65.10;;;29.70;;
75512;SDS011;64090;49.770;18.760;2023-02-15T20:04:42;75.40;;;36.00;;
75512;SDS011;64090;49.770;18.760;2023-02-15T20:07:47;91.60;;;44.80;;
75512;SDS011;64090;49.770;18.760;2023-02-15T20:10:52;75.60;;;37.00;;
75512;SDS011;64090;49.770;18.760;2023-02-15T20:14:17;63.30;;;31.00;;
75512;SDS011;64090;49.770;18.760;2023-02-15T20:17:22;83.20;;;39.80;;
75512;SDS011;64090;49.770;18.760;2023-02-15T20:20:28;81.10;;;38.70;;
75512;SDS011;64090;49.770;18.760;2023-02-15T20:23:53;77.50;;;37.50;;
75512;SDS011;64090;49.770;18.760;2023-02-15T20:26:56;72.50;;;33.90;;
75512;SDS011;64090;49.770;18.760;2023-02-15T20:30:01;63.20;;;29.90;;
75512;SDS011;64090;49.770;18.760;2023-02-15T20:33:06;54.20;;;26.00;;
75512;SDS011;64090;49.770;18.760;2023-02-15T20:36:16;51.00;;;26.60;;
75512;SDS011;64090;49.770;18.760;2023-02-15T20:39:21;51.10;;;26.20;;
75512;SDS011;64090;49.770;18.760;2023-02-15T20:42:25;48.50;;;23.70;;
75512;SDS011;64090;49.770;18.760;2023-02-15T20:45:30;44.00;;;22.90;;
75512;SDS011;64090;49.770;18.760;2023-02-15T20:48:34;56.80;;;27.40;;
75512;SDS011;64090;49.770;18.760;2023-02-15T20:51:38;56.00;;;26.60;;
75512;SDS011;64090;49.770;18.760;2023-02-15T20:54:45;62.70;;;29.20;;
75512;SDS011;64090;49.770;18.760;2023-02-15T20:57:49;56.10;;;25.60;;
75512;SDS011;64090;49.770;18.760;2023-02-15T21:00:52;54.70;;;26.50;;
75512;SDS011;64090;49.770;18.760;2023-02-15T21:03:57;58.80;;;27.20;;
75512;SDS011;64090;49.770;18.760;2023-02-15T21:07:01;51.60;;;25.90;;
75512;SDS011;64090;49.770;18.760;2023-02-15T21:10:04;41.20;;;18.00;;
75512;SDS011;64090;49.770;18.760;2023-02-15T21:13:09;50.00;;;24.50;;
75512;SDS011;64090;49.770;18.760;2023-02-15T21:19:30;46.60;;;23.80;;
75512;SDS011;64090;49.770;18.760;2023-02-15T21:22:33;47.60;;;21.40;;
75512;SDS011;64090;49.770;18.760;2023-02-15T21:25:37;61.80;;;27.90;;
75512;SDS011;64090;49.770;18.760;2023-02-15T21:28:40;52.40;;;21.30;;
75512;SDS011;64090;49.770;18.760;2023-02-15T21:31:44;55.80;;;27.60;;
75512;SDS011;64090;49.770;18.760;2023-02-15T21:34:47;45.40;;;20.10;;
75512;SDS011;64090;49.770;18.760;2023-02-15T21:37:50;39.80;;;17.30;;
75512;SDS011;64090;49.770;18.760;2023-02-15T21:40:54;62.40;;;28.40;;
75512;SDS011;64090;49.770;18.760;2023-02-15T21:44:18;63.00;;;29.70;;
75512;SDS011;64090;49.770;18.760;2023-02-15T21:47:41;54.50;;;27.20;;
75512;SDS011;64090;49.770;18.760;2023-02-15T21:50:53;64.10;;;30.00;;
75512;SDS011;64090;49.770;18.760;2023-02-15T21:54:16;50.90;;;23.30;;
75512;SDS011;64090;49.770;18.760;2023-02-15T21:57:21;58.00;;;25.80;;
75512;SDS011;64090;49.770;18.760;2023-02-15T22:00:24;49.80;;;24.70;;
75512;SDS011;64090;49.770;18.760;2023-02-15T22:03:34;54.00;;;24.70;;
75512;SDS011;64090;49.770;18.760;2023-02-15T22:06:39;38.20;;;20.10;;
75512;SDS011;64090;49.770;18.760;2023-02-15T22:09:43;43.80;;;20.90;;
75512;SDS011;64090;49.770;18.760;2023-02-15T22:12:46;44.30;;;25.40;;
75512;SDS011;64090;49.770;18.760;2023-02-15T22:15:49;37.00;;;18.40;;
75512;SDS011;64090;49.770;18.760;2023-02-15T22:18:52;41.80;;;22.40;;
75512;SDS011;64090;49.770;18.760;2023-02-15T22:21:55;43.40;;;22.80;;
75512;SDS011;64090;49.770;18.760;2023-02-15T22:25:02;40.40;;;18.90;;
75512;SDS011;64090;49.770;18.760;2023-02-15T22:28:08;29.30;;;14.10;;
75512;SDS011;64090;49.770;18.760;2023-02-15T22:31:19;45.30;;;25.30;;
75512;SDS011;64090;49.770;18.760;2023-02-15T22:34:25;46.40;;;25.00;;
75512;SDS011;64090;49.770;18.760;2023-02-15T22:37:30;43.40;;;22.30;;
75512;SDS011;64090;49.770;18.760;2023-02-15T22:40:37;48.70;;;26.20;;
75512;SDS011;64090;49.770;18.760;2023-02-15T22:43:42;51.50;;;26.00;;
75512;SDS011;64090;49.770;18.760;2023-02-15T22:46:47;25.80;;;15.80;;
75512;SDS011;64090;49.770;18.760;2023-02-15T22:49:50;48.60;;;26.00;;
75512;SDS011;64090;49.770;18.760;2023-02-15T22:52:53;56.00;;;26.70;;
75512;SDS011;64090;49.770;18.760;2023-02-15T22:55:57;48.40;;;23.50;;
75512;SDS011;64090;49.770;18.760;2023-02-15T22:59:04;50.30;;;24.00;;
75512;SDS011;64090;49.770;18.760;2023-02-15T23:02:11;52.30;;;26.80;;
75512;SDS011;64090;49.770;18.760;2023-02-15T23:05:23;46.90;;;21.30;;
75512;SDS011;64090;49.770;18.760;2023-02-15T23:08:30;33.30;;;16.90;;